sensor_id;sensor_type;location;lat;lon;timestamp;pressure;altitude;pressure_sealevel;temperature;humidity
1616;BME280;801;47.982;7.810;2023-04-10T00:00:39;99116.06;;;9.91;81.59
1616;BME280;801;47.982;7.810;2023-04-10T00:03:07;99118.91;;;9.85;81.69
1616;BME280;801;47.982;7.810;2023-04-10T00:05:33;99117.56;;;9.70;81.92
1616;BME280;801;47.982;7.810;2023-04-10T00:08:00;99118.44;;;9.59;82.62
1616;BME280;801;47.982;7.810;2023-04-10T00:10:27;99117.41;;;9.60;83.26
1616;BME280;801;47.982;7.810;2023-04-10T00:12:55;99121.75;;;9.49;83.58
1616;BME280;801;47.982;7.810;2023-04-10T00:15:24;99122.63;;;9.38;85.25
1616;BME280;801;47.982;7.810;2023-04-10T00:17:51;99118.06;;;9.39;85.56
1616;BME280;801;47.982;7.810;2023-04-10T00:20:19;99118.06;;;9.39;86.11
1616;BME280;801;47.982;7.810;2023-04-10T00:22:46;99109.78;;;9.40;86.10
1616;BME280;801;47.982;7.810;2023-04-10T00:25:12;99110.59;;;9.41;86.01
1616;BME280;801;47.982;7.810;2023-04-10T00:27:39;99106.00;;;9.24;85.47
1616;BME280;801;47.982;7.810;2023-04-10T00:30:07;99103.47;;;9.18;87.12
1616;BME280;801;47.982;7.810;2023-04-10T00:32:34;99099.41;;;9.03;87.05
1616;BME280;801;47.982;7.810;2023-04-10T00:35:01;99101.97;;;9.10;87.53
1616;BME280;801;47.982;7.810;2023-04-10T00:37:28;99097.66;;;9.09;87.33
1616;BME280;801;47.982;7.810;2023-04-10T00:39:54;99099.06;;;9.11;86.94
1616;BME280;801;47.982;7.810;2023-04-10T00:42:21;99094.78;;;8.99;87.59
1616;BME280;801;47.982;7.810;2023-04-10T00:44:47;99105.63;;;8.92;88.30
1616;BME280;801;47.982;7.810;2023-04-10T00:47:13;99097.72;;;8.85;87.66
1616;BME280;801;47.982;7.810;2023-04-10T00:49:42;99099.72;;;8.78;87.85
1616;BME280;801;47.982;7.810;2023-04-10T00:52:09;99096.56;;;8.81;87.80
1616;BME280;801;47.982;7.810;2023-04-10T00:54:37;99098.44;;;8.69;88.73
1616;BME280;801;47.982;7.810;2023-04-10T00:57:03;99087.75;;;8.69;89.49
1616;BME280;801;47.982;7.810;2023-04-10T00:59:30;99091.69;;;8.78;89.80
1616;BME280;801;47.982;7.810;2023-04-10T01:01:57;99093.91;;;8.69;89.20
1616;BME280;801;47.982;7.810;2023-04-10T01:04:24;99092.75;;;8.54;90.47
1616;BME280;801;47.982;7.810;2023-04-10T01:06:58;99095.56;;;8.47;91.23
1616;BME280;801;47.982;7.810;2023-04-10T01:09:34;99088.78;;;8.56;90.75
1616;BME280;801;47.982;7.810;2023-04-10T01:12:13;99092.97;;;8.52;90.97
1616;BME280;801;47.982;7.810;2023-04-10T01:14:50;99094.22;;;8.26;92.74
1616;BME280;801;47.982;7.810;2023-04-10T01:17:21;99087.63;;;8.28;92.90
1616;BME280;801;47.982;7.810;2023-04-10T01:19:59;99090.53;;;8.27;92.66
1616;BME280;801;47.982;7.810;2023-04-10T01:22:33;99098.34;;;8.28;93.33
1616;BME280;801;47.982;7.810;2023-04-10T01:28:03;99097.03;;;8.19;94.32
1616;BME280;801;47.982;7.810;2023-04-10T01:30:34;99095.66;;;8.28;93.17
1616;BME280;801;47.982;7.810;2023-04-10T01:33:00;99101.59;;;8.30;92.42
1616;BME280;801;47.982;7.810;2023-04-10T01:35:29;99108.69;;;8.25;93.31
1616;BME280;801;47.982;7.810;2023-04-10T01:37:59;99094.59;;;8.18;93.66
1616;BME280;801;47.982;7.810;2023-04-10T01:40:27;99088.66;;;8.04;94.31
1616;BME280;801;47.982;7.810;2023-04-10T01:42:55;99086.00;;;8.04;94.86
1616;BME280;801;47.982;7.810;2023-04-10T01:45:25;99091.88;;;7.94;95.56
1616;BME280;801;47.982;7.810;2023-04-10T01:47:54;99086.19;;;7.90;95.54
1616;BME280;801;47.982;7.810;2023-04-10T01:50:21;99095.63;;;7.93;95.82
1616;BME280;801;47.982;7.810;2023-04-10T01:52:49;99090.03;;;7.95;95.40
1616;BME280;801;47.982;7.810;2023-04-10T01:55:18;99095.97;;;7.97;95.99
1616;BME280;801;47.982;7.810;2023-04-10T01:57:45;99095.16;;;7.96;95.81
1616;BME280;801;47.982;7.810;2023-04-10T02:00:13;99095.16;;;7.96;95.11
1616;BME280;801;47.982;7.810;2023-04-10T02:02:40;99097.34;;;7.87;94.77
1616;BME280;801;47.982;7.810;2023-04-10T02:05:08;99104.91;;;7.18;99.14
1616;BME280;801;47.982;7.810;2023-04-10T02:07:38;99108.09;;;7.27;100.00
1616;BME280;801;47.982;7.810;2023-04-10T02:10:10;99097.13;;;7.47;99.51
1616;BME280;801;47.982;7.810;2023-04-10T02:12:44;99095.53;;;7.58;98.89
1616;BME280;801;47.982;7.810;2023-04-10T02:15:12;99085.66;;;7.58;99.21
1616;BME280;801;47.982;7.810;2023-04-10T02:17:40;99097.25;;;7.52;100.00
1616;BME280;801;47.982;7.810;2023-04-10T02:20:09;99096.75;;;7.43;100.00
1616;BME280;801;47.982;7.810;2023-04-10T02:22:36;99092.25;;;7.44;100.00
1616;BME280;801;47.982;7.810;2023-04-10T02:25:04;99094.84;;;7.51;100.00
1616;BME280;801;47.982;7.810;2023-04-10T02:27:32;99095.31;;;7.59;100.00
1616;BME280;801;47.982;7.810;2023-04-10T02:29:59;99084.16;;;7.62;100.00
1616;BME280;801;47.982;7.810;2023-04-10T02:32:26;99088.91;;;7.60;100.00
1616;BME280;801;47.982;7.810;2023-04-10T02:34:53;99085.97;;;7.50;100.00
1616;BME280;801;47.982;7.810;2023-04-10T02:37:21;99084.34;;;7.49;100.00
1616;BME280;801;47.982;7.810;2023-04-10T02:39:48;99084.22;;;7.44;100.00
1616;BME280;801;47.982;7.810;2023-04-10T02:42:15;99095.06;;;7.49;100.00
1616;BME280;801;47.982;7.810;2023-04-10T02:44:41;99094.47;;;7.47;100.00
1616;BME280;801;47.982;7.810;2023-04-10T02:47:08;99100.88;;;7.46;100.00
1616;BME280;801;47.982;7.810;2023-04-10T02:49:34;99102.47;;;7.47;100.00
1616;BME280;801;47.982;7.810;2023-04-10T02:52:01;99105.88;;;7.54;99.65
1616;BME280;801;47.982;7.810;2023-04-10T02:54:29;99098.69;;;7.55;98.87
1616;BME280;801;47.982;7.810;2023-04-10T02:56:56;99102.16;;;7.55;98.88
1616;BME280;801;47.982;7.810;2023-04-10T02:59:22;99102.47;;;7.47;97.85
1616;BME280;801;47.982;7.810;2023-04-10T03:01:50;99095.06;;;7.49;99.87
1616;BME280;801;47.982;7.810;2023-04-10T03:04:17;99084.91;;;7.39;100.00
1616;BME280;801;47.982;7.810;2023-04-10T03:06:44;99081.16;;;7.28;100.00
1616;BME280;801;47.982;7.810;2023-04-10T03:09:10;99072.41;;;7.21;100.00
1616;BME280;801;47.982;7.810;2023-04-10T03:11:38;99074.13;;;7.16;100.00
1616;BME280;801;47.982;7.810;2023-04-10T03:14:05;99069.81;;;7.15;100.00
1616;BME280;801;47.982;7.810;2023-04-10T03:16:33;99060.13;;;7.02;100.00
1616;BME280;801;47.982;7.810;2023-04-10T03:19:00;99063.09;;;6.94;100.00
1616;BME280;801;47.982;7.810;2023-04-10T03:21:26;99057.47;;;6.83;100.00
1616;BME280;801;47.982;7.810;2023-04-10T03:23:53;99054.34;;;6.86;100.00
1616;BME280;801;47.982;7.810;2023-04-10T03:26:19;99041.28;;;6.78;100.00
1616;BME280;801;47.982;7.810;2023-04-10T03:28:49;99045.91;;;6.71;100.00
1616;BME280;801;47.982;7.810;2023-04-10T03:31:16;99050.81;;;6.74;100.00
1616;BME280;801;47.982;7.810;2023-04-10T03:33:42;99039.66;;;6.77;100.00
1616;BME280;801;47.982;7.810;2023-04-10T03:36:09;99041.28;;;6.78;100.00
1616;BME280;801;47.982;7.810;2023-04-10T03:38:36;99031.66;;;6.77;100.00
1616;BME280;801;47.982;7.810;2023-04-10T03:41:03;99038.31;;;6.86;100.00
1616;BME280;801;47.982;7.810;2023-04-10T03:43:29;99031.50;;;6.91;100.00
1616;BME280;801;47.982;7.810;2023-04-10T03:45:57;99030.75;;;6.83;100.00
1616;BME280;801;47.982;7.810;2023-04-10T03:48:24;99035.59;;;6.75;100.00
1616;BME280;801;47.982;7.810;2023-04-10T03:50:52;99039.00;;;6.63;100.00
1616;BME280;801;47.982;7.810;2023-04-10T03:53:18;99040.03;;;6.62;100.00
1616;BME280;801;47.982;7.810;2023-04-10T03:55:45;99031.22;;;6.62;100.00
1616;BME280;801;47.982;7.810;2023-04-10T03:58:12;99033.88;;;6.62;100.00
1616;BME280;801;47.982;7.810;2023-04-10T04:00:38;99031.69;;;6.59;100.00
1616;BME280;801;47.982;7.810;2023-04-10T04:03:06;99036.63;;;6.55;100.00
1616;BME280;801;47.982;7.810;2023-04-10T04:05:33;99025.56;;;6.52;100.00
1616;BME280;801;47.982;7.810;2023-04-10T04:07:59;99044.94;;;6.47;100.00
1616;BME280;801;47.982;7.810;2023-04-10T04:10:27;99032.31;;;6.36;100.00
1616;BME280;801;47.982;7.810;2023-04-10T04:12:54;99040.13;;;6.37;100.00
1616;BME280;801;47.982;7.810;2023-04-10T04:15:20;99042.78;;;6.37;100.00
1616;BME280;801;47.982;7.810;2023-04-10T04:17:48;99045.47;;;6.37;100.00
1616;BME280;801;47.982;7.810;2023-04-10T04:20:16;99047.81;;;6.27;100.00
1616;BME280;801;47.982;7.810;2023-04-10T04:22:42;99045.53;;;6.31;100.00
1616;BME280;801;47.982;7.810;2023-04-10T04:25:09;99049.25;;;6.30;100.00
1616;BME280;801;47.982;7.810;2023-04-10T04:27:35;99051.53;;;6.26;100.00
1616;BME280;801;47.982;7.810;2023-04-10T04:30:02;99055.22;;;6.25;100.00
1616;BME280;801;47.982;7.810;2023-04-10T04:32:29;99054.13;;;6.14;100.00
1616;BME280;801;47.982;7.810;2023-04-10T04:34:55;99044.84;;;6.17;100.00
1616;BME280;801;47.982;7.810;2023-04-10T04:37:23;99051.00;;;6.17;100.00
1616;BME280;801;47.982;7.810;2023-04-10T04:39:50;99051.00;;;6.17;100.00
1616;BME280;801;47.982;7.810;2023-04-10T04:42:16;99048.53;;;6.16;100.00
1616;BME280;801;47.982;7.810;2023-04-10T04:44:43;99055.53;;;6.17;100.00
1616;BME280;801;47.982;7.810;2023-04-10T04:47:09;99056.00;;;6.07;100.00
1616;BME280;801;47.982;7.810;2023-04-10T04:49:36;99054.91;;;5.96;100.00
1616;BME280;801;47.982;7.810;2023-04-10T04:52:02;99052.84;;;5.98;100.00
1616;BME280;801;47.982;7.810;2023-04-10T04:54:31;99053.25;;;5.95;100.00
1616;BME280;801;47.982;7.810;2023-04-10T04:56:57;99049.13;;;5.99;100.00
1616;BME280;801;47.982;7.810;2023-04-10T04:59:24;99045.63;;;5.99;100.00
1616;BME280;801;47.982;7.810;2023-04-10T05:01:50;99053.28;;;5.89;100.00
1616;BME280;801;47.982;7.810;2023-04-10T05:04:17;99050.00;;;5.87;100.00
1616;BME280;801;47.982;7.810;2023-04-10T05:06:44;99048.81;;;5.82;100.00
1616;BME280;801;47.982;7.810;2023-04-10T05:09:11;99053.78;;;5.79;100.00
1616;BME280;801;47.982;7.810;2023-04-10T05:11:39;99057.84;;;5.81;100.00
1616;BME280;801;47.982;7.810;2023-04-10T05:14:05;99057.41;;;5.85;100.00
1616;BME280;801;47.982;7.810;2023-04-10T05:16:32;99063.59;;;5.85;100.00
1616;BME280;801;47.982;7.810;2023-04-10T05:18:58;99061.66;;;5.92;100.00
1616;BME280;801;47.982;7.810;2023-04-10T05:21:25;99070.47;;;5.99;100.00
1616;BME280;801;47.982;7.810;2023-04-10T05:23:52;99067.59;;;6.01;100.00
1616;BME280;801;47.982;7.810;2023-04-10T05:26:18;99067.94;;;6.05;100.00
1616;BME280;801;47.982;7.810;2023-04-10T05:28:46;99068.38;;;6.01;100.00
1616;BME280;801;47.982;7.810;2023-04-10T05:31:13;99061.94;;;6.09;100.00
1616;BME280;801;47.982;7.810;2023-04-10T05:33:39;99063.22;;;6.07;100.00
1616;BME280;801;47.982;7.810;2023-04-10T05:36:06;99055.19;;;6.07;100.00
1616;BME280;801;47.982;7.810;2023-04-10T05:38:33;99057.88;;;6.07;100.00
1616;BME280;801;47.982;7.810;2023-04-10T05:41:00;99060.13;;;6.10;100.00
1616;BME280;801;47.982;7.810;2023-04-10T05:43:26;99060.38;;;6.01;100.00
1616;BME280;801;47.982;7.810;2023-04-10T05:45:54;99053.88;;;5.91;100.00
1616;BME280;801;47.982;7.810;2023-04-10T05:48:20;99056.09;;;5.94;100.00
1616;BME280;801;47.982;7.810;2023-04-10T05:50:50;99056.75;;;5.89;100.00
1616;BME280;801;47.982;7.810;2023-04-10T05:53:19;99062.09;;;5.89;100.00
1616;BME280;801;47.982;7.810;2023-04-10T05:55:48;99070.09;;;5.89;100.00
1616;BME280;801;47.982;7.810;2023-04-10T05:58:15;99065.56;;;5.96;100.00
1616;BME280;801;47.982;7.810;2023-04-10T06:00:42;99072.91;;;6.01;100.00
1616;BME280;801;47.982;7.810;2023-04-10T06:03:10;99078.94;;;6.15;100.00
1616;BME280;801;47.982;7.810;2023-04-10T06:05:36;99078.06;;;6.21;100.00
1616;BME280;801;47.982;7.810;2023-04-10T06:08:03;99077.78;;;6.29;100.00
1616;BME280;801;47.982;7.810;2023-04-10T06:10:31;99061.47;;;6.37;100.00
1616;BME280;801;47.982;7.810;2023-04-10T06:12:57;99072.91;;;6.44;100.00
1616;BME280;801;47.982;7.810;2023-04-10T06:15:24;99074.09;;;6.49;100.00
1616;BME280;801;47.982;7.810;2023-04-10T06:17:50;99074.03;;;6.55;100.00
1616;BME280;801;47.982;7.810;2023-04-10T06:20:19;99075.56;;;6.63;100.00
1616;BME280;801;47.982;7.810;2023-04-10T06:22:46;99084.03;;;6.78;100.00
1616;BME280;801;47.982;7.810;2023-04-10T06:25:12;99080.69;;;6.83;100.00
1616;BME280;801;47.982;7.810;2023-04-10T06:27:39;99078.78;;;6.90;100.00
1616;BME280;801;47.982;7.810;2023-04-10T06:30:07;99089.50;;;7.02;100.00
1616;BME280;801;47.982;7.810;2023-04-10T06:32:34;99087.47;;;7.16;100.00
1616;BME280;801;47.982;7.810;2023-04-10T06:35:01;99077.88;;;7.26;100.00
1616;BME280;801;47.982;7.810;2023-04-10T06:37:29;99070.53;;;7.22;100.00
1616;BME280;801;47.982;7.810;2023-04-10T06:40:04;99077.41;;;7.30;100.00
1616;BME280;801;47.982;7.810;2023-04-10T06:42:31;99080.09;;;6.99;100.00
1616;BME280;801;47.982;7.810;2023-04-10T06:44:57;99078.78;;;7.20;100.00
1616;BME280;801;47.982;7.810;2023-04-10T06:47:24;99086.97;;;7.07;100.00
1616;BME280;801;47.982;7.810;2023-04-10T06:49:50;99083.72;;;7.05;100.00
1616;BME280;801;47.982;7.810;2023-04-10T06:52:17;99084.38;;;7.00;100.00
1616;BME280;801;47.982;7.810;2023-04-10T06:54:45;99084.22;;;7.14;100.00
1616;BME280;801;47.982;7.810;2023-04-10T06:57:12;99078.53;;;7.10;100.00
1616;BME280;801;47.982;7.810;2023-04-10T06:59:38;99065.53;;;7.25;100.00
1616;BME280;801;47.982;7.810;2023-04-10T07:02:05;99068.91;;;7.51;100.00
1616;BME280;801;47.982;7.810;2023-04-10T07:04:31;99073.47;;;7.62;100.00
1616;BME280;801;47.982;7.810;2023-04-10T07:06:58;99072.88;;;7.60;100.00
1616;BME280;801;47.982;7.810;2023-04-10T07:09:25;99076.72;;;7.64;100.00
1616;BME280;801;47.982;7.810;2023-04-10T07:11:53;99079.88;;;7.61;100.00
1616;BME280;801;47.982;7.810;2023-04-10T07:14:19;99072.19;;;7.65;100.00
1616;BME280;801;47.982;7.810;2023-04-10T07:16:47;99074.25;;;7.63;100.00
1616;BME280;801;47.982;7.810;2023-04-10T07:19:14;99071.75;;;7.80;100.00
1616;BME280;801;47.982;7.810;2023-04-10T07:21:40;99071.41;;;7.88;100.00
1616;BME280;801;47.982;7.810;2023-04-10T07:24:07;99077.00;;;7.98;100.00
1616;BME280;801;47.982;7.810;2023-04-10T07:26:33;99076.41;;;7.96;100.00
1616;BME280;801;47.982;7.810;2023-04-10T07:29:02;99078.28;;;8.07;100.00
1616;BME280;801;47.982;7.810;2023-04-10T07:31:28;99082.03;;;8.18;100.00
1616;BME280;801;47.982;7.810;2023-04-10T07:33:55;99072.81;;;8.26;100.00
1616;BME280;801;47.982;7.810;2023-04-10T07:36:22;99070.38;;;8.36;100.00
1616;BME280;801;47.982;7.810;2023-04-10T07:38:48;99072.84;;;8.38;100.00
1616;BME280;801;47.982;7.810;2023-04-10T07:41:15;99073.31;;;8.46;100.00
1616;BME280;801;47.982;7.810;2023-04-10T07:43:42;99073.06;;;8.36;100.00
1616;BME280;801;47.982;7.810;2023-04-10T07:46:09;99069.09;;;8.50;100.00
1616;BME280;801;47.982;7.810;2023-04-10T07:48:36;99079.09;;;8.79;100.00
1616;BME280;801;47.982;7.810;2023-04-10T07:51:03;99072.59;;;9.03;100.00
1616;BME280;801;47.982;7.810;2023-04-10T07:53:33;99072.47;;;9.10;100.00
1616;BME280;801;47.982;7.810;2023-04-10T07:56:00;99073.75;;;9.07;100.00
1616;BME280;801;47.982;7.810;2023-04-10T07:58:26;99069.41;;;9.18;100.00
1616;BME280;801;47.982;7.810;2023-04-10T08:00:53;99058.25;;;9.38;100.00
1616;BME280;801;47.982;7.810;2023-04-10T08:03:21;99061.75;;;9.39;100.00
1616;BME280;801;47.982;7.810;2023-04-10T08:05:48;99060.38;;;9.53;100.00
1616;BME280;801;47.982;7.810;2023-04-10T08:08:15;99061.13;;;9.65;100.00
1616;BME280;801;47.982;7.810;2023-04-10T08:10:41;99057.31;;;9.78;100.00
1616;BME280;801;47.982;7.810;2023-04-10T08:13:08;99051.53;;;9.86;100.00
1616;BME280;801;47.982;7.810;2023-04-10T08:15:34;99054.69;;;10.00;100.00
1616;BME280;801;47.982;7.810;2023-04-10T08:18:01;99056.28;;;9.96;100.00
1616;BME280;801;47.982;7.810;2023-04-10T08:20:29;99061.38;;;10.14;100.00
1616;BME280;801;47.982;7.810;2023-04-10T08:23:00;99067.16;;;10.23;99.13
1616;BME280;801;47.982;7.810;2023-04-10T08:25:27;99057.72;;;10.21;97.02
1616;BME280;801;47.982;7.810;2023-04-10T08:27:53;99059.34;;;10.38;93.05
1616;BME280;801;47.982;7.810;2023-04-10T08:30:20;99058.28;;;10.23;93.03
1616;BME280;801;47.982;7.810;2023-04-10T08:32:46;99057.97;;;10.36;92.95
1616;BME280;801;47.982;7.810;2023-04-10T08:35:13;99053.34;;;10.53;90.15
1616;BME280;801;47.982;7.810;2023-04-10T08:37:41;99052.50;;;10.70;88.24
1616;BME280;801;47.982;7.810;2023-04-10T08:40:08;99047.50;;;10.78;83.67
1616;BME280;801;47.982;7.810;2023-04-10T08:42:35;99044.88;;;10.84;85.03
1616;BME280;801;47.982;7.810;2023-04-10T08:45:02;99044.84;;;11.06;84.92
1616;BME280;801;47.982;7.810;2023-04-10T08:47:34;99043.19;;;11.27;84.25
1616;BME280;801;47.982;7.810;2023-04-10T08:50:05;99042.41;;;11.31;83.10
1616;BME280;801;47.982;7.810;2023-04-10T08:52:33;99045.66;;;11.33;82.43
1616;BME280;801;47.982;7.810;2023-04-10T08:55:07;99046.03;;;11.42;81.72
1616;BME280;801;47.982;7.810;2023-04-10T08:57:36;99051.31;;;11.59;81.62
1616;BME280;801;47.982;7.810;2023-04-10T09:00:04;99044.31;;;11.63;77.47
1616;BME280;801;47.982;7.810;2023-04-10T09:02:31;99046.25;;;11.95;77.92
1616;BME280;801;47.982;7.810;2023-04-10T09:04:59;99046.31;;;12.05;78.51
1616;BME280;801;47.982;7.810;2023-04-10T09:07:27;99047.41;;;12.09;78.45
1616;BME280;801;47.982;7.810;2023-04-10T09:09:53;99040.78;;;12.22;76.22
1616;BME280;801;47.982;7.810;2023-04-10T09:12:21;99029.66;;;12.08;75.38
1616;BME280;801;47.982;7.810;2023-04-10T09:14:48;99032.25;;;12.45;77.32
1616;BME280;801;47.982;7.810;2023-04-10T09:17:18;99029.34;;;12.52;75.76
1616;BME280;801;47.982;7.810;2023-04-10T09:19:46;99021.59;;;12.13;76.21
1616;BME280;801;47.982;7.810;2023-04-10T09:22:14;99017.81;;;12.67;73.76
1616;BME280;801;47.982;7.810;2023-04-10T09:24:42;99018.06;;;12.60;71.68
1616;BME280;801;47.982;7.810;2023-04-10T09:27:09;99011.88;;;12.65;72.28
1616;BME280;801;47.982;7.810;2023-04-10T09:29:44;99010.34;;;12.84;71.83
1616;BME280;801;47.982;7.810;2023-04-10T09:32:23;99009.28;;;13.01;74.39
1616;BME280;801;47.982;7.810;2023-04-10T09:35:00;99010.44;;;13.15;68.15
1616;BME280;801;47.982;7.810;2023-04-10T09:37:30;99001.84;;;13.28;67.75
1616;BME280;801;47.982;7.810;2023-04-10T09:39:57;99009.69;;;13.35;67.08
1616;BME280;801;47.982;7.810;2023-04-10T09:42:29;98996.72;;;13.53;69.30
1616;BME280;801;47.982;7.810;2023-04-10T09:44:58;99010.22;;;13.63;69.59
1616;BME280;801;47.982;7.810;2023-04-10T09:47:25;99007.53;;;13.58;63.67
1616;BME280;801;47.982;7.810;2023-04-10T09:49:53;99002.66;;;13.75;67.02
1616;BME280;801;47.982;7.810;2023-04-10T09:52:21;98997.78;;;13.62;66.08
1616;BME280;801;47.982;7.810;2023-04-10T09:54:49;99001.31;;;13.83;67.60
1616;BME280;801;47.982;7.810;2023-04-10T09:57:18;98995.34;;;14.11;62.32
1616;BME280;801;47.982;7.810;2023-04-10T09:59:47;98992.41;;;13.72;61.74
1616;BME280;801;47.982;7.810;2023-04-10T10:02:16;98985.56;;;14.26;61.80
1616;BME280;801;47.982;7.810;2023-04-10T10:04:44;98978.88;;;13.98;62.81
1616;BME280;801;47.982;7.810;2023-04-10T10:07:12;98982.56;;;14.32;61.57
1616;BME280;801;47.982;7.810;2023-04-10T10:09:39;98973.56;;;14.63;61.41
1616;BME280;801;47.982;7.810;2023-04-10T10:12:08;98970.50;;;14.85;58.03
1616;BME280;801;47.982;7.810;2023-04-10T10:14:36;98963.72;;;14.87;57.45
1616;BME280;801;47.982;7.810;2023-04-10T10:17:09;98963.84;;;15.11;53.54
1616;BME280;801;47.982;7.810;2023-04-10T10:19:41;98953.34;;;15.39;55.19
1616;BME280;801;47.982;7.810;2023-04-10T10:22:11;98954.06;;;15.50;56.89
1616;BME280;801;47.982;7.810;2023-04-10T10:24:39;98953.13;;;15.30;55.47
1616;BME280;801;47.982;7.810;2023-04-10T10:27:12;98947.16;;;15.63;55.32
1616;BME280;801;47.982;7.810;2023-04-10T10:29:40;98957.28;;;15.86;56.29
1616;BME280;801;47.982;7.810;2023-04-10T10:32:10;98949.81;;;15.73;57.55
1616;BME280;801;47.982;7.810;2023-04-10T10:34:39;98946.66;;;15.61;57.57
1616;BME280;801;47.982;7.810;2023-04-10T10:37:07;98950.81;;;15.82;56.00
1616;BME280;801;47.982;7.810;2023-04-10T10:39:43;98939.75;;;15.79;55.14
1616;BME280;801;47.982;7.810;2023-04-10T10:42:27;98939.41;;;16.09;55.79
1616;BME280;801;47.982;7.810;2023-04-10T10:44:59;98948.25;;;16.20;56.53
1616;BME280;801;47.982;7.810;2023-04-10T10:47:33;98941.34;;;16.09;56.23
1616;BME280;801;47.982;7.810;2023-04-10T10:50:06;98940.94;;;15.96;57.10
1616;BME280;801;47.982;7.810;2023-04-10T10:52:39;98934.53;;;16.11;57.50
1616;BME280;801;47.982;7.810;2023-04-10T10:55:28;98939.88;;;15.92;57.76
1616;BME280;801;47.982;7.810;2023-04-10T10:57:58;98921.06;;;16.25;58.20
1616;BME280;801;47.982;7.810;2023-04-10T11:00:26;98920.38;;;16.38;57.02
1616;BME280;801;47.982;7.810;2023-04-10T11:03:27;98919.19;;;16.02;57.11
1616;BME280;801;47.982;7.810;2023-04-10T11:05:55;98921.66;;;15.98;56.43
1616;BME280;801;47.982;7.810;2023-04-10T11:08:35;98919.47;;;16.24;56.94
1616;BME280;801;47.982;7.810;2023-04-10T11:11:04;98923.56;;;15.68;56.17
1616;BME280;801;47.982;7.810;2023-04-10T11:13:31;98928.28;;;16.35;57.15
1616;BME280;801;47.982;7.810;2023-04-10T11:15:59;98926.56;;;16.20;54.11
1616;BME280;801;47.982;7.810;2023-04-10T11:19:01;98925.56;;;15.87;53.91
1616;BME280;801;47.982;7.810;2023-04-10T11:21:28;98926.28;;;16.22;53.51
1616;BME280;801;47.982;7.810;2023-04-10T11:24:03;98935.66;;;16.29;52.64
1616;BME280;801;47.982;7.810;2023-04-10T11:26:37;98931.00;;;16.11;53.08
1616;BME280;801;47.982;7.810;2023-04-10T11:29:05;98918.84;;;16.51;52.40
1616;BME280;801;47.982;7.810;2023-04-10T11:31:33;98907.91;;;16.99;50.10
1616;BME280;801;47.982;7.810;2023-04-10T11:34:02;98920.38;;;17.00;49.19
1616;BME280;801;47.982;7.810;2023-04-10T11:36:30;98904.13;;;17.14;50.39
1616;BME280;801;47.982;7.810;2023-04-10T11:38:58;98913.34;;;16.99;49.95
1616;BME280;801;47.982;7.810;2023-04-10T11:41:28;98909.00;;;17.17;50.30
1616;BME280;801;47.982;7.810;2023-04-10T11:43:55;98909.66;;;17.09;51.71
1616;BME280;801;47.982;7.810;2023-04-10T11:46:22;98904.31;;;17.04;51.59
1616;BME280;801;47.982;7.810;2023-04-10T11:48:51;98920.44;;;17.47;51.38
1616;BME280;801;47.982;7.810;2023-04-10T11:51:20;98914.81;;;17.11;50.58
1616;BME280;801;47.982;7.810;2023-04-10T11:53:47;98912.28;;;17.14;51.21
1616;BME280;801;47.982;7.810;2023-04-10T11:56:18;98909.16;;;16.88;53.71
1616;BME280;801;47.982;7.810;2023-04-10T11:58:48;98907.91;;;17.32;52.25
1616;BME280;801;47.982;7.810;2023-04-10T12:01:20;98909.03;;;17.31;52.34
1616;BME280;801;47.982;7.810;2023-04-10T12:03:46;98911.38;;;17.71;51.76
1616;BME280;801;47.982;7.810;2023-04-10T12:06:14;98905.56;;;18.05;51.62
1616;BME280;801;47.982;7.810;2023-04-10T12:08:43;98909.59;;;18.08;52.09
1616;BME280;801;47.982;7.810;2023-04-10T12:11:12;98890.44;;;18.40;51.41
1616;BME280;801;47.982;7.810;2023-04-10T12:13:39;98885.13;;;18.08;50.84
1616;BME280;801;47.982;7.810;2023-04-10T12:16:07;98874.38;;;19.03;49.33
1616;BME280;801;47.982;7.810;2023-04-10T12:18:35;98874.72;;;18.87;50.18
1616;BME280;801;47.982;7.810;2023-04-10T12:21:03;98870.59;;;18.76;50.38
1616;BME280;801;47.982;7.810;2023-04-10T12:23:30;98857.81;;;18.27;51.78
1616;BME280;801;47.982;7.810;2023-04-10T12:26:12;98854.81;;;19.01;52.71
1616;BME280;801;47.982;7.810;2023-04-10T12:28:41;98863.38;;;19.39;49.82
1616;BME280;801;47.982;7.810;2023-04-10T12:31:08;98855.91;;;18.63;51.31
1616;BME280;801;47.982;7.810;2023-04-10T12:33:35;98847.00;;;18.85;51.23
1616;BME280;801;47.982;7.810;2023-04-10T12:36:02;98860.84;;;18.25;51.51
1616;BME280;801;47.982;7.810;2023-04-10T12:38:38;98859.97;;;18.52;51.54
1616;BME280;801;47.982;7.810;2023-04-10T12:41:06;98852.47;;;18.72;50.77
1616;BME280;801;47.982;7.810;2023-04-10T12:43:35;98854.06;;;18.36;49.92
1616;BME280;801;47.982;7.810;2023-04-10T12:46:03;98844.16;;;18.91;50.64
1616;BME280;801;47.982;7.810;2023-04-10T12:48:30;98843.06;;;19.14;48.08
1616;BME280;801;47.982;7.810;2023-04-10T12:50:56;98846.53;;;19.37;49.13
1616;BME280;801;47.982;7.810;2023-04-10T12:53:23;98844.66;;;19.15;48.09
1616;BME280;801;47.982;7.810;2023-04-10T12:56:01;98854.78;;;19.77;48.20
1616;BME280;801;47.982;7.810;2023-04-10T12:58:29;98840.50;;;19.49;44.03
1616;BME280;801;47.982;7.810;2023-04-10T13:01:03;98840.09;;;19.33;42.47
1616;BME280;801;47.982;7.810;2023-04-10T13:03:30;98832.81;;;19.51;41.28
1616;BME280;801;47.982;7.810;2023-04-10T13:05:58;98824.16;;;19.49;37.87
1616;BME280;801;47.982;7.810;2023-04-10T13:08:25;98826.22;;;19.75;37.49
1616;BME280;801;47.982;7.810;2023-04-10T13:10:51;98831.25;;;19.90;35.68
1616;BME280;801;47.982;7.810;2023-04-10T13:13:19;98827.88;;;19.93;36.47
1616;BME280;801;47.982;7.810;2023-04-10T13:15:45;98830.53;;;19.44;37.43
1616;BME280;801;47.982;7.810;2023-04-10T13:18:14;98827.22;;;19.79;37.11
1616;BME280;801;47.982;7.810;2023-04-10T13:20:41;98826.09;;;19.48;36.25
1616;BME280;801;47.982;7.810;2023-04-10T13:23:07;98829.66;;;19.26;36.55
1616;BME280;801;47.982;7.810;2023-04-10T13:25:36;98824.00;;;19.45;36.44
1616;BME280;801;47.982;7.810;2023-04-10T13:28:03;98818.25;;;19.47;36.61
1616;BME280;801;47.982;7.810;2023-04-10T13:30:34;98815.97;;;19.49;36.91
1616;BME280;801;47.982;7.810;2023-04-10T13:33:01;98811.34;;;19.49;37.88
1616;BME280;801;47.982;7.810;2023-04-10T13:35:29;98806.63;;;19.33;38.38
1616;BME280;801;47.982;7.810;2023-04-10T13:37:55;98800.09;;;19.11;37.32
1616;BME280;801;47.982;7.810;2023-04-10T13:40:22;98801.41;;;19.45;38.03
1616;BME280;801;47.982;7.810;2023-04-10T13:42:48;98800.00;;;18.94;38.77